Time;durP1;ratioP1;P1;durP2;ratioP2;P2;SDS_P1;SDS_P2;PMS_P1;PMS_P2;Temp;Humidity;BMP_temperature;BMP_pressure;BME280_temperature;BME280_humidity;BME280_pressure;Samples;Min_cycle;Max_cycle;Signal;HPM_P1;HPM_P2
2024/02/23 05:00:33;;;;;;;1.00;0.63;;;5.70;99.90;;;;;;5978074;22;22073;-70
2024/02/23 05:02:59;;;;;;;1.05;0.82;;;5.70;99.90;;;;;;5014578;28;20261;-72
2024/02/23 05:05:26;;;;;;;0.60;0.60;;;5.70;99.90;;;;;;5013847;28;20528;-71
2024/02/23 05:07:53;;;;;;;0.55;0.55;;;5.70;99.90;;;;;;5014812;28;20210;-71
2024/02/23 05:10:20;;;;;;;1.85;0.90;;;5.50;99.90;;;;;;5011919;28;20210;-72
2024/02/23 05:12:46;;;;;;;1.48;0.60;;;5.40;99.90;;;;;;5034157;28;20202;-72
2024/02/23 05:15:13;;;;;;;1.10;0.73;;;5.40;99.90;;;;;;5033587;28;20253;-71
2024/02/23 05:17:41;;;;;;;1.15;1.15;;;5.30;99.90;;;;;;5033917;28;20206;-72
2024/02/23 05:20:10;;;;;;;0.75;0.50;;;5.30;99.90;;;;;;5031508;28;20211;-72
2024/02/23 05:22:37;;;;;;;0.65;0.65;;;5.20;99.90;;;;;;5033022;28;20209;-72
2024/02/23 05:25:04;;;;;;;0.50;0.50;;;5.20;99.90;;;;;;5035361;28;20289;-72
2024/02/23 05:27:31;;;;;;;3.33;0.98;;;5.20;99.90;;;;;;5035399;28;20217;-71
2024/02/23 05:29:58;;;;;;;0.98;0.98;;;5.20;99.90;;;;;;5034241;28;20680;-72
2024/02/23 05:32:25;;;;;;;0.95;0.95;;;5.20;99.90;;;;;;5034813;28;20225;-72
2024/02/23 05:34:54;;;;;;;0.90;0.85;;;5.20;99.90;;;;;;5032489;28;20221;-72
2024/02/23 05:37:21;;;;;;;1.05;0.65;;;5.20;99.90;;;;;;5031129;28;20221;-73
2024/02/23 05:39:47;;;;;;;0.40;0.40;;;5.20;99.90;;;;;;5034201;28;20237;-71
2024/02/23 05:42:14;;;;;;;1.17;1.13;;;5.20;99.90;;;;;;5035012;28;20225;-72
2024/02/23 05:44:44;;;;;;;0.60;0.60;;;5.20;99.90;;;;;;5034659;28;20207;-72
2024/02/23 05:47:10;;;;;;;0.93;0.93;;;5.20;99.90;;;;;;5030614;28;20220;-72
2024/02/23 05:49:37;;;;;;;3.75;1.50;;;5.20;99.90;;;;;;5034304;28;20213;-72
2024/02/23 05:52:06;;;;;;;1.23;1.23;;;5.20;99.90;;;;;;5035035;28;20241;-72
2024/02/23 05:54:32;;;;;;;2.58;1.05;;;5.20;99.90;;;;;;5032100;28;20276;-72
2024/02/23 05:56:59;;;;;;;0.73;0.70;;;5.20;99.90;;;;;;5031148;28;20212;-71
2024/02/23 05:59:27;;;;;;;0.73;0.73;;;5.10;99.90;;;;;;5028044;28;20202;-72
2024/02/23 06:01:56;;;;;;;0.65;0.65;;;5.10;99.90;;;;;;5030507;28;20253;-71
2024/02/23 06:04:23;;;;;;;0.82;0.82;;;5.10;99.90;;;;;;5030512;28;20275;-71
2024/02/23 06:06:50;;;;;;;0.75;0.75;;;5.20;99.90;;;;;;5030417;28;20222;-71
2024/02/23 06:09:18;;;;;;;0.85;0.57;;;5.20;99.90;;;;;;5031044;28;20226;-70
2024/02/23 06:11:45;;;;;;;1.05;1.00;;;5.20;99.90;;;;;;5023211;28;20227;-72
2024/02/23 06:14:12;;;;;;;0.75;0.75;;;5.20;99.90;;;;;;5030473;28;20210;-72
2024/02/23 06:16:40;;;;;;;0.90;0.90;;;5.30;99.90;;;;;;5027951;28;20234;-71
2024/02/23 06:19:06;;;;;;;1.58;1.45;;;5.30;99.90;;;;;;5028859;28;20210;-71
2024/02/23 06:21:33;;;;;;;1.33;1.08;;;5.20;99.90;;;;;;5030321;28;20316;-72
2024/02/23 06:24:00;;;;;;;1.48;1.48;;;5.30;99.90;;;;;;5030901;28;20217;-72
2024/02/23 06:26:28;;;;;;;0.70;0.70;;;5.30;99.90;;;;;;5029016;28;20207;-72
2024/02/23 06:28:54;;;;;;;1.30;0.73;;;5.20;99.90;;;;;;5030185;28;20213;-71
2024/02/23 06:31:21;;;;;;;0.85;0.85;;;5.20;99.90;;;;;;5029643;28;20233;-72
2024/02/23 06:33:49;;;;;;;8.23;1.35;;;5.20;99.90;;;;;;5029458;28;20209;-72
2024/02/23 06:36:15;;;;;;;1.10;1.05;;;5.20;99.90;;;;;;5028293;28;20350;-72
2024/02/23 06:38:42;;;;;;;1.05;1.05;;;5.20;99.90;;;;;;5029782;28;20214;-72
2024/02/23 06:41:10;;;;;;;0.98;0.98;;;5.10;99.90;;;;;;5028098;28;20711;-71
2024/02/23 06:43:39;;;;;;;1.00;1.00;;;5.10;99.90;;;;;;5026391;28;20585;-72
2024/02/23 06:46:08;;;;;;;1.00;1.00;;;5.10;99.90;;;;;;5024862;28;20288;-72
2024/02/23 06:48:35;;;;;;;1.00;1.00;;;5.10;99.90;;;;;;5024780;28;20256;-71
2024/02/23 06:51:02;;;;;;;0.80;0.80;;;5.10;99.90;;;;;;5020410;28;20227;-71
2024/02/23 06:53:29;;;;;;;0.80;0.80;;;5.00;99.90;;;;;;5023055;28;20212;-71
2024/02/23 06:55:56;;;;;;;0.80;0.80;;;5.00;99.90;;;;;;5027795;28;20588;-71
2024/02/23 06:58:22;;;;;;;0.95;0.95;;;5.00;99.90;;;;;;5028338;28;20210;-72
2024/02/23 07:00:50;;;;;;;7.72;2.03;;;5.00;99.90;;;;;;5026619;28;20691;-72
2024/02/23 07:03:17;;;;;;;0.95;0.95;;;5.00;99.90;;;;;;5026811;28;20579;-71
2024/02/23 07:05:45;;;;;;;1.45;1.15;;;5.00;99.90;;;;;;5027555;28;20752;-72
2024/02/23 07:08:11;;;;;;;1.65;1.55;;;5.00;99.90;;;;;;5026927;28;20237;-72
2024/02/23 07:10:38;;;;;;;0.73;0.73;;;5.00;99.90;;;;;;5029035;28;20688;-72
2024/02/23 07:13:05;;;;;;;1.00;1.00;;;5.10;99.90;;;;;;5028084;28;20236;-72
2024/02/23 07:15:32;;;;;;;1.38;1.38;;;5.20;99.90;;;;;;5027863;28;20676;-72
2024/02/23 07:18:00;;;;;;;1.42;1.42;;;5.20;99.90;;;;;;5027853;28;20888;-72
2024/02/23 07:20:27;;;;;;;0.93;0.93;;;5.20;99.90;;;;;;5028888;28;20217;-72
2024/02/23 07:22:54;;;;;;;1.05;1.05;;;5.30;99.90;;;;;;5030549;28;20210;-72
2024/02/23 07:25:21;;;;;;;1.15;1.15;;;5.30;99.90;;;;;;5029615;28;20596;-72
2024/02/23 07:27:49;;;;;;;1.30;1.30;;;5.30;99.90;;;;;;5030991;28;20292;-71
2024/02/23 07:30:17;;;;;;;1.05;1.02;;;5.30;99.90;;;;;;5032770;28;20714;-71
2024/02/23 07:32:44;;;;;;;2.20;1.98;;;5.40;99.90;;;;;;5029707;28;20240;-71
2024/02/23 07:35:12;;;;;;;7.65;4.68;;;5.40;99.90;;;;;;5031238;28;20226;-72
2024/02/23 07:37:39;;;;;;;5.22;3.30;;;5.50;99.90;;;;;;5035160;28;20233;-72
2024/02/23 07:40:07;;;;;;;2.80;2.10;;;5.50;99.90;;;;;;5033987;28;20217;-73
2024/02/23 07:42:35;;;;;;;5.10;2.35;;;5.60;99.90;;;;;;5029151;28;20317;-72
2024/02/23 07:45:04;;;;;;;7.35;4.40;;;5.60;99.90;;;;;;5032322;28;20210;-71
2024/02/23 07:47:30;;;;;;;13.25;7.78;;;5.70;99.90;;;;;;5033298;28;20217;-72
2024/02/23 07:49:57;;;;;;;4.85;4.40;;;5.70;99.90;;;;;;5032891;28;20575;-68
2024/02/23 07:52:25;;;;;;;2.30;2.13;;;5.80;99.90;;;;;;5033763;28;20242;-71
2024/02/23 07:54:52;;;;;;;1.95;1.83;;;5.90;99.90;;;;;;5030397;28;20230;-71
2024/02/23 07:57:19;;;;;;;1.60;1.50;;;5.90;99.90;;;;;;5029905;28;20210;-69
2024/02/23 07:59:46;;;;;;;2.42;2.22;;;6.00;99.90;;;;;;5031830;28;20221;-69
2024/02/23 08:02:13;;;;;;;4.28;3.80;;;6.00;99.90;;;;;;5033373;28;20245;-69
2024/02/23 08:04:40;;;;;;;6.47;3.72;;;6.00;99.90;;;;;;5031523;28;20206;-69
2024/02/23 08:07:06;;;;;;;3.20;1.85;;;6.00;99.90;;;;;;5032194;28;20218;-69
2024/02/23 08:09:34;;;;;;;3.10;2.90;;;6.00;99.90;;;;;;5028052;28;20658;-69
2024/02/23 08:12:01;;;;;;;4.68;2.05;;;6.10;99.90;;;;;;5030599;28;20316;-70
2024/02/23 08:14:28;;;;;;;5.55;3.75;;;6.10;99.90;;;;;;5032548;28;20230;-68
2024/02/23 08:16:54;;;;;;;1.70;1.15;;;6.20;99.90;;;;;;5030296;28;20226;-70
2024/02/23 08:19:21;;;;;;;2.00;1.95;;;6.20;99.90;;;;;;5024528;28;20215;-70
2024/02/23 08:21:48;;;;;;;2.30;2.20;;;6.30;99.90;;;;;;5029807;28;20245;-68
2024/02/23 08:24:15;;;;;;;2.15;2.05;;;6.30;99.90;;;;;;5029746;28;20210;-69
2024/02/23 08:26:42;;;;;;;3.70;2.50;;;6.30;99.90;;;;;;5031667;28;20213;-68
2024/02/23 08:29:09;;;;;;;1.10;1.10;;;6.40;99.90;;;;;;5031382;28;20206;-68
2024/02/23 08:31:36;;;;;;;4.72;4.35;;;6.40;99.90;;;;;;5029523;28;20222;-68
2024/02/23 08:34:03;;;;;;;1.83;1.60;;;6.50;99.90;;;;;;5032521;28;20236;-70
2024/02/23 08:36:29;;;;;;;1.60;1.27;;;6.60;99.90;;;;;;5031933;28;20226;-69
2024/02/23 08:38:56;;;;;;;2.03;1.92;;;6.70;99.90;;;;;;5032274;28;20233;-70
2024/02/23 08:41:22;;;;;;;0.70;0.70;;;6.80;99.90;;;;;;5026971;28;20594;-70
2024/02/23 08:43:51;;;;;;;2.88;2.13;;;6.90;99.90;;;;;;5033384;28;20580;-69
2024/02/23 08:46:18;;;;;;;2.60;1.80;;;7.00;99.90;;;;;;5029181;28;20213;-69
2024/02/23 08:48:45;;;;;;;7.80;2.63;;;7.10;99.90;;;;;;5030023;28;20982;-69
2024/02/23 08:51:11;;;;;;;1.45;1.35;;;7.30;99.90;;;;;;5023917;28;20235;-69
2024/02/23 08:53:38;;;;;;;0.93;0.93;;;7.40;99.90;;;;;;5031288;28;20207;-69
2024/02/23 08:56:08;;;;;;;2.15;1.02;;;7.40;99.90;;;;;;5031130;28;20227;-69
2024/02/23 08:58:35;;;;;;;2.38;1.33;;;7.50;99.90;;;;;;5029045;28;20278;-69
2024/02/23 09:01:04;;;;;;;3.50;1.25;;;7.60;99.90;;;;;;5031263;28;20236;-69
2024/02/23 09:03:31;;;;;;;1.30;1.30;;;7.60;99.90;;;;;;5027483;28;20205;-69
2024/02/23 09:05:58;;;;;;;3.70;1.20;;;7.70;99.90;;;;;;5029656;28;20250;-69
2024/02/23 09:08:24;;;;;;;0.95;0.93;;;7.80;99.90;;;;;;5022999;28;20231;-68
2024/02/23 09:10:51;;;;;;;0.93;0.93;;;7.90;99.90;;;;;;5031431;28;20231;-69
2024/02/23 09:13:18;;;;;;;0.75;0.75;;;7.90;99.90;;;;;;5029853;28;20203;-69
2024/02/23 09:15:44;;;;;;;1.75;1.20;;;7.90;99.90;;;;;;5031080;28;20598;-69
2024/02/23 09:18:12;;;;;;;1.25;1.13;;;8.00;99.90;;;;;;5029780;28;20207;-67
2024/02/23 09:20:39;;;;;;;1.70;1.60;;;8.00;99.90;;;;;;5027140;28;20234;-70
2024/02/23 09:23:06;;;;;;;2.25;1.20;;;8.10;99.90;;;;;;5030677;28;20644;-69
2024/02/23 09:25:32;;;;;;;1.02;1.02;;;8.10;99.90;;;;;;5027975;28;20196;-69
2024/02/23 09:27:59;;;;;;;2.70;0.82;;;8.10;99.90;;;;;;5030747;28;20200;-68
2024/02/23 09:30:26;;;;;;;1.55;0.95;;;8.30;99.90;;;;;;5028475;28;20217;-68
2024/02/23 09:32:53;;;;;;;1.23;0.80;;;8.30;99.90;;;;;;5029486;28;20530;-68
2024/02/23 09:35:21;;;;;;;1.65;1.15;;;8.40;99.90;;;;;;5030423;28;20279;-68
2024/02/23 09:37:48;;;;;;;0.52;0.52;;;8.40;99.90;;;;;;5030032;28;20577;-69
2024/02/23 09:40:16;;;;;;;1.20;1.20;;;8.40;99.90;;;;;;5031252;28;20223;-68
2024/02/23 09:42:43;;;;;;;1.20;0.80;;;8.40;99.90;;;;;;5030581;28;20235;-68
2024/02/23 09:45:12;;;;;;;0.73;0.73;;;8.40;99.90;;;;;;5030397;28;20209;-68
2024/02/23 09:47:40;;;;;;;1.35;1.35;;;8.40;99.90;;;;;;5031236;28;20210;-69
2024/02/23 09:50:09;;;;;;;0.60;0.60;;;8.40;99.90;;;;;;5030350;28;20208;-68
2024/02/23 09:52:37;;;;;;;1.15;0.50;;;8.30;99.90;;;;;;5030667;28;20233;-68
2024/02/23 09:55:04;;;;;;;0.98;0.55;;;8.30;99.90;;;;;;5030546;28;20254;-69
2024/02/23 09:57:31;;;;;;;0.93;0.63;;;8.40;99.90;;;;;;5026793;28;20237;-68
2024/02/23 09:59:58;;;;;;;1.35;0.90;;;8.40;99.90;;;;;;5020907;28;20579;-68
2024/02/23 10:02:26;;;;;;;0.43;0.43;;;8.50;99.90;;;;;;5028490;28;20259;-67
2024/02/23 10:04:54;;;;;;;3.97;1.38;;;8.50;99.90;;;;;;5029827;28;20667;-69
2024/02/23 10:07:21;;;;;;;0.80;0.80;;;8.60;99.90;;;;;;5030757;28;20224;-68
2024/02/23 10:09:49;;;;;;;0.50;0.50;;;8.50;99.90;;;;;;5027807;28;20558;-67
2024/02/23 10:12:17;;;;;;;1.40;0.82;;;8.50;99.90;;;;;;5030572;28;20225;-68
2024/02/23 10:14:44;;;;;;;4.32;0.82;;;8.40;99.90;;;;;;5022794;28;20209;-70
2024/02/23 10:17:11;;;;;;;0.50;0.50;;;8.40;99.90;;;;;;5029148;28;20639;-69
2024/02/23 10:19:38;;;;;;;0.93;0.80;;;8.40;99.90;;;;;;5027855;28;20586;-70
2024/02/23 10:22:05;;;;;;;3.08;0.57;;;8.50;99.90;;;;;;5020767;28;20225;-69
2024/02/23 10:24:32;;;;;;;0.70;0.70;;;8.40;99.90;;;;;;5025326;28;20209;-69
2024/02/23 10:27:01;;;;;;;0.50;0.50;;;8.50;99.90;;;;;;5028555;28;20228;-69
2024/02/23 10:29:28;;;;;;;0.55;0.55;;;8.60;99.90;;;;;;5030049;28;20237;-69
2024/02/23 10:31:58;;;;;;;0.93;0.93;;;8.70;99.90;;;;;;5029720;28;20230;-68
2024/02/23 10:34:27;;;;;;;1.55;0.90;;;8.70;99.90;;;;;;5029525;28;20271;-70
2024/02/23 10:36:56;;;;;;;0.70;0.40;;;8.90;99.90;;;;;;5046874;22;20244;-71
2024/02/23 10:39:25;;;;;;;2.22;1.48;;;8.90;99.90;;;;;;5004477;28;20233;-69
2024/02/23 10:41:57;;;;;;;3.22;1.00;;;8.70;99.90;;;;;;5002924;28;20247;-69
2024/02/23 10:44:27;;;;;;;1.40;1.10;;;8.70;99.90;;;;;;5005057;28;20214;-69
2024/02/23 10:46:55;;;;;;;2.22;2.10;;;8.60;99.90;;;;;;5008842;28;20712;-69
2024/02/23 10:49:26;;;;;;;1.60;1.60;;;8.70;99.90;;;;;;5009235;28;20227;-69
2024/02/23 10:51:53;;;;;;;0.90;0.90;;;8.60;99.90;;;;;;5007542;28;20229;-69
2024/02/23 10:54:21;;;;;;;1.15;0.90;;;8.60;99.90;;;;;;5008982;28;20234;-69
2024/02/23 10:56:49;;;;;;;1.42;1.33;;;8.70;99.90;;;;;;5008619;28;20227;-69
2024/02/23 10:59:18;;;;;;;0.93;0.93;;;8.70;99.90;;;;;;5003907;28;20218;-69
2024/02/23 11:01:48;;;;;;;4.05;1.35;;;8.70;99.90;;;;;;5008469;28;20201;-71
2024/02/23 11:04:16;;;;;;;1.75;1.65;;;8.80;99.90;;;;;;5009330;28;20705;-70
2024/02/23 11:06:43;;;;;;;1.63;1.52;;;8.80;99.90;;;;;;5007828;28;20213;-70
2024/02/23 11:09:13;;;;;;;2.47;0.80;;;8.90;99.90;;;;;;5005846;28;20580;-70
2024/02/23 11:11:40;;;;;;;3.13;2.47;;;8.90;99.90;;;;;;5008583;28;20218;-70
2024/02/23 11:14:11;;;;;;;3.15;0.98;;;9.00;99.90;;;;;;5008326;28;20278;-70
2024/02/23 11:16:41;;;;;;;0.70;0.70;;;9.20;99.90;;;;;;5004772;28;20306;-70
2024/02/23 11:19:11;;;;;;;2.10;2.00;;;9.20;99.90;;;;;;5008118;28;20211;-70
2024/02/23 11:21:38;;;;;;;0.40;0.40;;;9.20;99.90;;;;;;5005510;28;20581;-69
2024/02/23 11:24:06;;;;;;;1.20;1.20;;;9.30;99.90;;;;;;5004046;28;20736;-70
2024/02/23 11:26:33;;;;;;;2.30;0.80;;;9.30;99.90;;;;;;5007817;28;20211;-69
2024/02/23 11:29:00;;;;;;;1.90;0.88;;;9.20;99.90;;;;;;5005337;28;20208;-69
2024/02/23 11:31:31;;;;;;;0.65;0.65;;;9.30;99.90;;;;;;5000698;28;20215;-69
2024/02/23 11:33:58;;;;;;;0.55;0.43;;;9.20;99.90;;;;;;5008746;28;20207;-69
2024/02/23 11:36:30;;;;;;;0.60;0.60;;;9.20;99.90;;;;;;5005162;28;20226;-69
2024/02/23 11:38:58;;;;;;;2.60;0.70;;;9.20;99.90;;;;;;5005544;28;20235;-69
2024/02/23 11:41:26;;;;;;;0.52;0.52;;;9.20;99.90;;;;;;5000257;28;20240;-68
2024/02/23 11:43:53;;;;;;;0.38;0.38;;;9.30;99.90;;;;;;4995164;28;20224;-69
2024/02/23 11:46:20;;;;;;;0.32;0.32;;;9.30;99.90;;;;;;5008002;28;20199;-69
2024/02/23 11:48:53;;;;;;;0.30;0.25;;;9.40;99.90;;;;;;5008431;28;20721;-69
2024/02/23 11:51:20;;;;;;;0.43;0.43;;;9.40;99.90;;;;;;5007884;28;20616;-69
2024/02/23 11:53:49;;;;;;;0.50;0.38;;;9.40;99.90;;;;;;5008403;28;20208;-68
2024/02/23 11:56:15;;;;;;;0.40;0.40;;;9.50;99.90;;;;;;5008507;28;20234;-69
2024/02/23 11:58:43;;;;;;;1.77;0.30;;;9.60;99.90;;;;;;5007802;28;20233;-69
2024/02/23 12:01:09;;;;;;;0.55;0.35;;;9.60;99.90;;;;;;5008264;28;20215;-69
2024/02/23 12:03:38;;;;;;;0.95;0.60;;;9.50;99.90;;;;;;5008947;28;20302;-69
2024/02/23 12:06:06;;;;;;;0.95;0.30;;;9.60;99.90;;;;;;5008799;28;20203;-69
2024/02/23 12:08:37;;;;;;;1.00;0.50;;;9.60;99.90;;;;;;5008526;28;20728;-68
2024/02/23 12:11:08;;;;;;;0.82;0.50;;;9.60;99.90;;;;;;5007237;28;20384;-68
2024/02/23 12:13:35;;;;;;;2.33;0.50;;;9.60;99.90;;;;;;5008832;28;20211;-68
2024/02/23 12:16:02;;;;;;;0.32;0.32;;;9.60;99.90;;;;;;5012170;28;20214;-68
2024/02/23 12:18:29;;;;;;;0.50;0.50;;;9.50;99.90;;;;;;5009697;28;20277;-68
2024/02/23 12:21:00;;;;;;;1.42;1.33;;;9.50;99.90;;;;;;5012384;28;20214;-68
2024/02/23 12:23:26;;;;;;;1.90;0.60;;;9.50;99.90;;;;;;5011988;28;20207;-68
2024/02/23 12:25:54;;;;;;;0.30;0.30;;;9.60;99.90;;;;;;5012244;28;20211;-68
2024/02/23 12:28:23;;;;;;;0.50;0.50;;;9.60;99.90;;;;;;5005495;28;20243;-68
2024/02/23 12:31:02;;;;;;;3.70;0.40;;;9.60;99.90;;;;;;5011584;28;20266;-69
2024/02/23 12:33:30;;;;;;;1.75;0.50;;;9.60;99.90;;;;;;5012507;28;20203;-69
2024/02/23 12:35:57;;;;;;;0.30;0.30;;;9.50;99.90;;;;;;5012360;28;20204;-69
2024/02/23 12:38:24;;;;;;;0.38;0.38;;;9.60;99.90;;;;;;5011255;28;20231;-69
2024/02/23 12:40:51;;;;;;;1.52;0.30;;;9.70;99.90;;;;;;5012337;28;20203;-69
2024/02/23 12:43:21;;;;;;;0.30;0.30;;;9.70;99.90;;;;;;5011314;28;20310;-69
2024/02/23 12:45:50;;;;;;;0.55;0.40;;;9.70;99.90;;;;;;5012320;28;20231;-69
2024/02/23 12:48:16;;;;;;;0.50;0.35;;;9.80;99.90;;;;;;5011984;28;20219;-69
2024/02/23 12:50:44;;;;;;;4.45;0.95;;;10.00;99.90;;;;;;5011483;28;20252;-69
2024/02/23 12:53:12;;;;;;;1.20;0.30;;;10.10;99.90;;;;;;5011666;28;20681;-69
2024/02/23 12:55:39;;;;;;;0.40;0.40;;;10.10;99.90;;;;;;5012830;28;20563;-69
2024/02/23 12:58:06;;;;;;;0.60;0.37;;;10.00;99.90;;;;;;5010973;28;20228;-69
2024/02/23 13:00:32;;;;;;;0.68;0.68;;;10.00;99.90;;;;;;5012005;28;20838;-70
2024/02/23 13:03:01;;;;;;;0.95;0.40;;;10.00;99.90;;;;;;5011342;28;20817;-71
2024/02/23 13:05:27;;;;;;;0.30;0.30;;;10.00;99.90;;;;;;5012637;28;20211;-70
2024/02/23 13:07:54;;;;;;;0.82;0.40;;;10.10;99.90;;;;;;5011905;28;20608;-70
2024/02/23 13:10:21;;;;;;;0.30;0.30;;;10.10;99.90;;;;;;5011525;28;20219;-69
2024/02/23 13:12:47;;;;;;;1.10;0.30;;;10.00;99.90;;;;;;5011546;28;20203;-69
2024/02/23 13:15:15;;;;;;;1.10;0.40;;;10.00;99.90;;;;;;5007726;28;20207;-69
2024/02/23 13:17:42;;;;;;;0.40;0.38;;;10.00;99.90;;;;;;5005193;28;20231;-70
2024/02/23 13:20:13;;;;;;;0.60;0.52;;;10.00;99.90;;;;;;5007622;28;20211;-69
2024/02/23 13:22:40;;;;;;;0.30;0.30;;;9.90;99.90;;;;;;5009207;28;20203;-70
2024/02/23 13:25:07;;;;;;;1.08;0.20;;;9.90;99.90;;;;;;5007989;28;20224;-69
2024/02/23 13:27:34;;;;;;;0.73;0.50;;;9.90;99.90;;;;;;5011262;28;20223;-70
2024/02/23 13:30:01;;;;;;;0.57;0.40;;;9.90;99.90;;;;;;5009955;28;20213;-69
2024/02/23 13:32:27;;;;;;;0.20;0.20;;;9.60;99.90;;;;;;5011080;28;20314;-69
2024/02/23 13:34:54;;;;;;;0.25;0.25;;;9.50;99.90;;;;;;5008796;28;20650;-69
2024/02/23 13:37:22;;;;;;;0.20;0.20;;;9.40;99.90;;;;;;5010911;28;20234;-68
2024/02/23 13:39:49;;;;;;;0.30;0.30;;;9.30;99.90;;;;;;5010827;28;20809;-68
2024/02/23 13:42:16;;;;;;;0.22;0.22;;;9.30;99.90;;;;;;5003660;28;20218;-69
2024/02/23 13:44:42;;;;;;;0.20;0.20;;;9.20;99.90;;;;;;5010135;28;20203;-69
2024/02/23 13:47:12;;;;;;;1.30;0.32;;;9.20;99.90;;;;;;5010982;28;20228;-69
2024/02/23 13:49:39;;;;;;;0.90;0.40;;;9.20;99.90;;;;;;5010162;28;20698;-69
2024/02/23 13:52:06;;;;;;;0.68;0.40;;;9.20;99.90;;;;;;5011892;28;20214;-69
2024/02/23 13:54:34;;;;;;;1.13;0.30;;;9.20;99.90;;;;;;5011264;28;20203;-69
2024/02/23 13:57:01;;;;;;;0.50;0.50;;;9.20;99.90;;;;;;5011455;28;20337;-69
2024/02/23 13:59:27;;;;;;;0.20;0.20;;;9.20;99.90;;;;;;5009044;28;20211;-69
2024/02/23 14:01:54;;;;;;;0.20;0.20;;;9.20;99.90;;;;;;5008973;28;20207;-69
2024/02/23 14:04:21;;;;;;;0.45;0.40;;;9.10;99.90;;;;;;5011220;28;20214;-69
2024/02/23 14:06:47;;;;;;;0.47;0.47;;;9.10;99.90;;;;;;5010798;28;20231;-68
2024/02/23 14:09:14;;;;;;;1.35;0.70;;;9.00;99.90;;;;;;5010485;28;20215;-68
2024/02/23 14:11:42;;;;;;;0.40;0.40;;;9.00;99.90;;;;;;5010132;28;20218;-69
2024/02/23 14:14:09;;;;;;;2.78;0.50;;;9.00;99.90;;;;;;5009284;28;20211;-69
2024/02/23 14:16:36;;;;;;;0.30;0.30;;;9.00;99.90;;;;;;5010805;28;20213;-69
2024/02/23 14:19:02;;;;;;;0.40;0.40;;;9.00;99.90;;;;;;5008958;28;20203;-69
2024/02/23 14:21:29;;;;;;;0.70;0.70;;;9.10;99.90;;;;;;5010046;28;20586;-69
2024/02/23 14:23:56;;;;;;;1.35;0.57;;;9.00;99.90;;;;;;5010039;28;20210;-69
2024/02/23 14:26:23;;;;;;;0.45;0.45;;;9.00;99.90;;;;;;5008674;28;20251;-69
2024/02/23 14:28:51;;;;;;;0.75;0.50;;;9.00;99.90;;;;;;5007136;28;20226;-70
2024/02/23 14:31:18;;;;;;;0.65;0.50;;;9.00;99.90;;;;;;4998575;28;20209;-70
2024/02/23 14:33:45;;;;;;;0.30;0.30;;;9.00;99.90;;;;;;5010549;28;20215;-69
2024/02/23 14:36:11;;;;;;;0.73;0.30;;;9.00;99.90;;;;;;5008872;28;20265;-68
2024/02/23 14:38:38;;;;;;;0.40;0.40;;;9.00;99.90;;;;;;5008612;28;20288;-69
2024/02/23 14:41:08;;;;;;;0.52;0.52;;;9.10;99.90;;;;;;5009813;28;20212;-69
2024/02/23 14:43:35;;;;;;;0.45;0.45;;;9.00;99.90;;;;;;5009715;28;20235;-69
2024/02/23 14:46:05;;;;;;;0.52;0.50;;;9.00;99.90;;;;;;5009338;28;20561;-69
2024/02/23 14:48:31;;;;;;;1.85;0.30;;;9.10;99.90;;;;;;5010106;28;20314;-69
2024/02/23 14:50:58;;;;;;;0.68;0.45;;;9.10;99.90;;;;;;5009452;28;20210;-69
2024/02/23 14:53:26;;;;;;;0.40;0.40;;;9.10;99.90;;;;;;5010023;28;20299;-69
2024/02/23 14:55:53;;;;;;;0.65;0.65;;;9.00;99.90;;;;;;5009061;28;20730;-69
2024/02/23 14:58:20;;;;;;;0.80;0.40;;;9.00;99.90;;;;;;5002496;28;20286;-69
2024/02/23 15:00:46;;;;;;;0.50;0.50;;;9.00;99.90;;;;;;5009410;28;20203;-69
2024/02/23 15:03:15;;;;;;;0.30;0.30;;;9.00;99.90;;;;;;5007698;28;20769;-69
2024/02/23 15:05:41;;;;;;;0.30;0.30;;;9.00;99.90;;;;;;5006319;28;20219;-70
2024/02/23 15:08:08;;;;;;;0.63;0.63;;;9.00;99.90;;;;;;5007023;28;20642;-69
2024/02/23 15:10:35;;;;;;;0.47;0.47;;;9.00;99.90;;;;;;5009941;28;20218;-70
2024/02/23 15:13:01;;;;;;;3.05;0.68;;;9.20;99.90;;;;;;5012519;28;20210;-70
2024/02/23 15:15:28;;;;;;;0.40;0.40;;;9.30;99.90;;;;;;5013485;28;20227;-70
2024/02/23 15:17:55;;;;;;;0.40;0.40;;;9.40;99.90;;;;;;5017708;28;20239;-70
2024/02/23 15:20:23;;;;;;;0.95;0.95;;;9.40;99.90;;;;;;5012520;28;20536;-70
2024/02/23 15:22:50;;;;;;;1.00;0.30;;;9.40;99.90;;;;;;5010443;28;20207;-70
2024/02/23 15:25:17;;;;;;;0.47;0.40;;;9.40;99.90;;;;;;5009566;28;20214;-70
2024/02/23 15:27:43;;;;;;;0.50;0.50;;;9.30;99.90;;;;;;5007320;28;20227;-70
2024/02/23 15:30:11;;;;;;;0.25;0.25;;;9.30;99.90;;;;;;5008426;28;20627;-70
2024/02/23 15:32:38;;;;;;;0.60;0.35;;;9.30;99.90;;;;;;5008603;28;20215;-70
2024/02/23 15:35:06;;;;;;;0.22;0.22;;;9.30;99.90;;;;;;5008959;28;20203;-70
2024/02/23 15:37:35;;;;;;;0.20;0.20;;;9.30;99.90;;;;;;5009398;28;20245;-70
2024/02/23 15:40:03;;;;;;;0.50;0.43;;;9.30;99.90;;;;;;5008741;28;20207;-70
2024/02/23 15:42:30;;;;;;;0.50;0.40;;;9.40;99.90;;;;;;5006740;28;20802;-70
2024/02/23 15:44:56;;;;;;;0.30;0.30;;;9.40;99.90;;;;;;5003948;28;20634;-70
2024/02/23 15:47:23;;;;;;;2.63;0.47;;;9.50;99.90;;;;;;5008720;28;20226;-70
2024/02/23 15:49:51;;;;;;;4.40;0.57;;;9.50;99.90;;;;;;5010154;28;20210;-70
2024/02/23 15:52:17;;;;;;;3.90;0.60;;;9.50;99.90;;;;;;5009360;28;20234;-70
2024/02/23 15:54:46;;;;;;;0.57;0.40;;;9.50;99.90;;;;;;5012905;28;20210;-70
2024/02/23 15:57:13;;;;;;;1.25;0.38;;;9.50;99.90;;;;;;5013502;28;20682;-70
2024/02/23 15:59:39;;;;;;;0.30;0.30;;;9.40;99.90;;;;;;5010987;28;20238;-70
2024/02/23 16:02:07;;;;;;;0.20;0.20;;;9.40;99.90;;;;;;5010758;28;20207;-70
2024/02/23 16:04:34;;;;;;;0.30;0.30;;;9.40;99.90;;;;;;5012838;28;20214;-70
2024/02/23 16:07:01;;;;;;;1.00;0.63;;;9.30;99.90;;;;;;5006980;28;20230;-69
2024/02/23 16:09:27;;;;;;;0.40;0.40;;;9.30;99.90;;;;;;5012916;28;20211;-70
2024/02/23 16:11:55;;;;;;;0.45;0.40;;;9.30;99.90;;;;;;5010838;28;20206;-69
2024/02/23 16:14:22;;;;;;;1.85;0.20;;;9.30;99.90;;;;;;5010930;28;20206;-70
2024/02/23 16:16:50;;;;;;;1.05;0.90;;;9.20;99.90;;;;;;5010939;28;20712;-70
2024/02/23 16:19:18;;;;;;;0.50;0.32;;;9.20;99.90;;;;;;5004909;28;20234;-70
2024/02/23 16:21:46;;;;;;;0.30;0.30;;;9.20;99.90;;;;;;5004059;28;20295;-70
2024/02/23 16:24:12;;;;;;;0.50;0.50;;;9.20;99.90;;;;;;5005381;28;20195;-69
2024/02/23 16:26:39;;;;;;;0.20;0.20;;;9.20;99.90;;;;;;5012860;28;20206;-70
2024/02/23 16:29:08;;;;;;;0.50;0.50;;;9.20;99.90;;;;;;5008657;28;20208;-69
2024/02/23 16:31:36;;;;;;;0.43;0.40;;;9.20;99.90;;;;;;5010805;28;20203;-70
2024/02/23 16:34:03;;;;;;;0.47;0.47;;;9.10;99.90;;;;;;5012366;28;20283;-70
2024/02/23 16:36:30;;;;;;;0.50;0.50;;;9.10;99.90;;;;;;5012372;28;20207;-69
2024/02/23 16:38:56;;;;;;;0.30;0.30;;;9.10;99.90;;;;;;5008665;28;20307;-70
2024/02/23 16:41:23;;;;;;;0.60;0.60;;;9.00;99.90;;;;;;5009858;28;20207;-70
2024/02/23 16:43:50;;;;;;;1.85;0.63;;;9.00;99.90;;;;;;5010837;28;20213;-70
2024/02/23 16:46:18;;;;;;;0.57;0.57;;;9.00;99.90;;;;;;5012242;28;20280;-69
2024/02/23 16:48:45;;;;;;;0.82;0.82;;;8.90;99.90;;;;;;5011272;28;20729;-70
2024/02/23 16:51:12;;;;;;;0.30;0.30;;;8.90;99.90;;;;;;5009893;28;20640;-69
2024/02/23 16:53:39;;;;;;;0.50;0.50;;;8.80;99.90;;;;;;5007257;28;20226;-69
2024/02/23 16:56:06;;;;;;;0.57;0.57;;;8.80;99.90;;;;;;5012324;28;20217;-69
2024/02/23 16:58:35;;;;;;;0.80;0.80;;;8.70;99.90;;;;;;5008695;28;20764;-70
2024/02/23 17:01:04;;;;;;;0.55;0.55;;;8.60;99.90;;;;;;5010213;28;20199;-69
2024/02/23 17:03:32;;;;;;;0.60;0.60;;;8.60;99.90;;;;;;5010555;28;20222;-69
2024/02/23 17:06:00;;;;;;;0.30;0.30;;;8.50;99.90;;;;;;5011458;28;20205;-69
2024/02/23 17:08:27;;;;;;;0.63;0.57;;;8.40;99.90;;;;;;5005646;28;20287;-69
2024/02/23 17:10:54;;;;;;;0.68;0.68;;;8.30;99.90;;;;;;5009000;28;20208;-68
2024/02/23 17:13:20;;;;;;;1.10;0.40;;;8.30;99.90;;;;;;5011788;28;20209;-69
2024/02/23 17:15:47;;;;;;;0.80;0.80;;;8.20;99.90;;;;;;5012426;28;20217;-69
2024/02/23 17:18:14;;;;;;;0.70;0.70;;;8.20;99.90;;;;;;5010548;28;20601;-70
2024/02/23 17:20:42;;;;;;;2.70;0.68;;;8.20;99.90;;;;;;5003233;28;20201;-69
2024/02/23 17:23:09;;;;;;;1.42;0.90;;;8.20;99.90;;;;;;5011118;28;20205;-69
2024/02/23 17:25:35;;;;;;;0.45;0.45;;;8.20;99.90;;;;;;5011295;28;20668;-69
2024/02/23 17:28:02;;;;;;;2.47;0.60;;;8.10;99.90;;;;;;5003031;28;22955;-68
2024/02/23 17:30:30;;;;;;;0.63;0.50;;;8.10;99.90;;;;;;5004041;28;20202;-69
2024/02/23 17:32:56;;;;;;;2.05;0.65;;;8.10;99.90;;;;;;5010648;28;20363;-68
2024/02/23 17:35:23;;;;;;;4.20;1.10;;;8.10;99.90;;;;;;5008571;28;20220;-69
2024/02/23 17:37:51;;;;;;;0.70;0.70;;;8.10;99.90;;;;;;5008917;28;20703;-68
2024/02/23 17:40:18;;;;;;;1.42;0.43;;;8.10;99.90;;;;;;5010295;28;20222;-68
2024/02/23 17:42:44;;;;;;;1.20;1.02;;;8.10;99.90;;;;;;5011318;28;20292;-68
2024/02/23 17:45:11;;;;;;;4.10;0.73;;;8.10;99.90;;;;;;5009394;28;20208;-69
2024/02/23 17:47:38;;;;;;;0.40;0.40;;;8.10;99.90;;;;;;5007855;28;20589;-69
2024/02/23 17:50:06;;;;;;;0.50;0.50;;;8.10;99.90;;;;;;5007419;28;20297;-68
2024/02/23 17:52:33;;;;;;;0.60;0.60;;;8.10;99.90;;;;;;5012037;28;20224;-68
2024/02/23 17:55:01;;;;;;;2.95;0.55;;;8.10;99.90;;;;;;5007113;28;20229;-68
2024/02/23 17:57:28;;;;;;;1.70;0.95;;;8.10;99.90;;;;;;5010537;28;20226;-68